Princeton by the Sea, California
Current Conditions -  °F | °C
As of 5:35 AM on Tuesday 21 Oct 2014 (Local Time) from KHAF Reporting Station
Haze Haze  
Wind Chill: 50°   Ceiling: Unl
Heat Index: 50°   Visibility: 5mi
Dew Point: 50°   Wind: 3mph
Humidity: 100%   Direction: 110°ESE
Pressure: 30.08"   Gusts: NA
Location:  37.4511°N, 122.414°W
Report Text: KHAF 211235Z AUTO 11003KT 5SM BR FEW021 10/10 A3008 RMK AO2
Loading
Personal Weather Stations






























Interactive Weather Map
Tropical Storm Tracking
New forecast layout! Learn more

10-Day Weather Forecast

Advertisements
Track Severe Weather on mobile